Time;durP1;ratioP1;P1;durP2;ratioP2;P2;SDS_P1;SDS_P2;PMS_P1;PMS_P2;Temp;Humidity;BMP_temperature;BMP_pressure;BME280_temperature;BME280_humidity;BME280_pressure;Samples;Min_cycle;Max_cycle;Signal;HPM_P1;HPM_P2
2022/02/15 00:01:36;;;;;;;65.90;33.70;;;;;;;3.01;54.17;98642.65;219909;1285;139092;-58
2022/02/15 00:06:39;;;;;;;72.40;38.30;;;;;;;2.96;54.60;98638.44;219871;1285;139522;-59
2022/02/15 00:11:42;;;;;;;64.90;35.00;;;;;;;2.93;54.56;98639.45;219924;1284;139852;-59
2022/02/15 00:16:46;;;;;;;64.30;35.00;;;;;;;2.91;54.85;98638.45;219982;1283;138893;-58
2022/02/15 00:21:48;;;;;;;70.20;34.90;;;;;;;2.90;54.90;98634.27;219713;1285;139159;-60
2022/02/15 00:26:52;;;;;;;62.90;34.00;;;;;;;2.87;55.04;98637.58;219780;1285;138907;-60
2022/02/15 00:31:55;;;;;;;64.70;33.70;;;;;;;2.85;55.11;98628.87;219861;1284;138946;-59
2022/02/15 00:37:00;;;;;;;61.60;33.50;;;;;;;2.86;55.24;98627.98;219953;1285;140163;-58
2022/02/15 00:42:04;;;;;;;61.10;33.80;;;;;;;2.87;55.33;98621.11;219829;1285;140000;-58
2022/02/15 00:47:07;;;;;;;66.90;34.50;;;;;;;2.83;55.54;98612.27;219733;1285;139092;-60
2022/02/15 00:52:10;;;;;;;73.70;34.90;;;;;;;2.84;55.51;98622.42;219946;1286;139322;-59
2022/02/15 00:57:15;;;;;;;68.90;33.70;;;;;;;2.83;55.79;98616.67;219857;1285;139837;-58
2022/02/15 01:02:18;;;;;;;67.20;33.70;;;;;;;2.81;55.74;98613.05;219700;1284;140851;-58
2022/02/15 01:07:23;;;;;;;67.20;33.30;;;;;;;2.79;55.83;98603.53;219886;1283;139416;-58
2022/02/15 01:12:26;;;;;;;64.80;34.00;;;;;;;2.77;55.90;98599.58;219606;1286;138950;-57
2022/02/15 01:17:30;;;;;;;60.10;32.60;;;;;;;2.77;56.15;98597.83;219771;1285;139433;-58
2022/02/15 01:22:32;;;;;;;65.30;34.40;;;;;;;2.73;56.07;98588.16;219974;1284;139829;-58
2022/02/15 01:27:35;;;;;;;66.20;34.60;;;;;;;2.65;56.10;98580.91;219933;1285;139124;-57
2022/02/15 01:32:39;;;;;;;66.00;35.30;;;;;;;2.61;56.26;98573.89;219849;1285;139560;-58
2022/02/15 01:37:42;;;;;;;65.10;33.70;;;;;;;2.57;56.38;98565.11;219861;1283;141768;-59
2022/02/15 01:42:45;;;;;;;63.80;33.30;;;;;;;2.57;56.52;98558.61;219986;1284;139187;-58
2022/02/15 01:47:49;;;;;;;65.50;33.30;;;;;;;2.54;56.55;98557.16;219927;1285;139635;-59
2022/02/15 01:52:52;;;;;;;69.60;34.10;;;;;;;2.51;56.53;98549.60;219891;1284;139966;-58
2022/02/15 01:57:56;;;;;;;63.00;33.40;;;;;;;2.47;56.71;98558.49;219924;1285;139883;-58
2022/02/15 02:03:04;;;;;;;60.00;33.20;;;;;;;2.45;56.86;98558.56;219786;1285;140473;-60
2022/02/15 02:08:09;;;;;;;61.80;32.60;;;;;;;2.44;56.93;98558.25;219951;1285;139117;-59
2022/02/15 02:13:18;;;;;;;64.10;33.70;;;;;;;2.40;56.97;98556.12;219843;1285;139488;-58
2022/02/15 02:18:24;;;;;;;65.00;33.70;;;;;;;2.39;57.14;98557.73;219969;1285;140502;-60
2022/02/15 02:23:27;;;;;;;60.10;32.30;;;;;;;2.42;57.29;98555.86;219643;1285;139576;-59
2022/02/15 02:28:32;;;;;;;;;;;;;;;2.42;57.22;98553.73;220109;1285;139087;-59
2022/02/15 02:33:35;;;;;;;58.90;31.70;;;;;;;2.38;57.31;98559.33;220012;1284;126129;-59
2022/02/15 02:38:38;;;;;;;60.10;32.50;;;;;;;2.38;57.38;98550.05;219949;1284;139516;-59
2022/02/15 02:43:41;;;;;;;62.80;33.60;;;;;;;2.34;57.35;98551.94;219992;1285;140666;-59
2022/02/15 02:48:45;;;;;;;59.30;31.70;;;;;;;2.30;57.31;98549.79;220031;1284;138980;-60
2022/02/15 02:53:47;;;;;;;61.70;32.60;;;;;;;2.26;57.24;98547.86;219886;1285;138997;-59
2022/02/15 02:58:51;;;;;;;60.50;33.80;;;;;;;2.19;57.43;98550.22;220082;1285;139761;-61
2022/02/15 03:03:55;;;;;;;68.10;35.60;;;;;;;2.13;57.47;98552.90;219987;1283;141446;-58
2022/02/15 03:08:58;;;;;;;70.10;36.40;;;;;;;2.06;57.35;98549.46;220027;1285;139954;-59
2022/02/15 03:14:02;;;;;;;69.40;34.90;;;;;;;1.98;57.31;98551.67;219630;1284;140755;-59
2022/02/15 03:19:14;;;;;;;66.60;35.70;;;;;;;1.93;57.50;98550.11;219759;1285;140955;-58
2022/02/15 03:24:17;;;;;;;62.70;33.00;;;;;;;1.88;57.55;98543.98;219701;1285;139519;-58
2022/02/15 03:29:22;;;;;;;64.70;32.90;;;;;;;1.81;57.73;98552.61;219956;1285;140994;-60
2022/02/15 03:34:25;;;;;;;57.20;32.90;;;;;;;1.76;57.75;98550.50;219957;1285;139444;-59
2022/02/15 03:39:29;;;;;;;68.80;35.00;;;;;;;1.73;57.90;98549.05;220024;1283;138653;-58
2022/02/15 03:44:32;;;;;;;65.70;35.20;;;;;;;1.67;57.96;98558.17;219783;1284;140263;-59
2022/02/15 03:49:41;;;;;;;64.10;33.90;;;;;;;1.65;58.14;98562.05;219936;1285;139958;-59
2022/02/15 03:54:46;;;;;;;63.40;34.10;;;;;;;1.63;58.27;98566.33;219754;1283;140042;-60
2022/02/15 03:59:50;;;;;;;61.90;32.70;;;;;;;1.61;58.39;98571.46;219916;1284;138580;-62
2022/02/15 04:04:59;;;;;;;62.50;33.80;;;;;;;1.64;58.49;98573.84;220053;1283;139570;-59
2022/02/15 04:10:04;;;;;;;55.30;31.20;;;;;;;1.68;58.70;98572.66;219892;1285;139150;-57
2022/02/15 04:15:08;;;;;;;60.40;33.40;;;;;;;1.69;58.68;98570.84;219732;1285;140323;-58
2022/02/15 04:20:17;;;;;;;61.10;31.90;;;;;;;1.66;58.67;98571.15;219843;1284;138884;-60
2022/02/15 04:25:21;;;;;;;89.70;53.30;;;;;;;1.62;58.81;98569.34;219711;1285;141144;-60
2022/02/15 04:30:25;;;;;;;71.20;38.00;;;;;;;1.70;59.35;98572.94;219379;1285;140315;-60
2022/02/15 04:35:28;;;;;;;60.10;33.40;;;;;;;1.86;59.33;98575.85;219831;1285;139416;-59
2022/02/15 04:40:31;;;;;;;427.60;269.40;;;;;;;1.95;59.09;98575.92;220047;1285;139802;-59
2022/02/15 04:45:36;;;;;;;73.30;38.10;;;;;;;2.04;59.27;98567.55;219618;1285;150944;-59
2022/02/15 04:50:40;;;;;;;64.50;36.00;;;;;;;2.04;58.75;98566.69;219926;1284;139258;-58
2022/02/15 04:55:43;;;;;;;66.90;36.80;;;;;;;1.97;58.67;98569.02;219789;1285;138536;-59
2022/02/15 05:00:48;;;;;;;73.90;36.60;;;;;;;1.91;58.55;98574.15;219968;1285;140711;-59
2022/02/15 05:06:26;;;;;;;63.00;34.70;;;;;;;1.78;58.56;98582.45;219248;1285;139984;-58
2022/02/15 05:11:30;;;;;;;321.00;189.30;;;;;;;1.72;58.83;98587.56;219963;1284;139421;-58
2022/02/15 05:16:35;;;;;;;70.00;36.90;;;;;;;1.78;59.22;98588.20;219920;1284;139820;-58
2022/02/15 05:21:59;;;;;;;67.60;36.10;;;;;;;1.71;58.84;98590.90;220036;1284;140473;-58
2022/02/15 05:27:03;;;;;;;66.10;36.00;;;;;;;1.62;58.71;98592.23;219870;1284;139766;-58
2022/02/15 05:32:27;;;;;;;64.00;35.50;;;;;;;1.54;58.87;98592.86;219877;1285;139339;-57
2022/02/15 05:37:33;;;;;;;67.40;35.20;;;;;;;1.50;59.02;98600.52;219627;1286;139985;-58
2022/02/15 05:42:37;;;;;;;73.10;35.10;;;;;;;1.42;58.92;98597.80;219715;1286;139135;-57
2022/02/15 05:47:41;;;;;;;61.50;34.40;;;;;;;1.36;59.17;98599.41;219715;1285;139854;-58
2022/02/15 05:52:44;;;;;;;65.00;35.70;;;;;;;1.34;59.45;98596.33;219843;1283;139767;-58
2022/02/15 05:57:51;;;;;;;71.50;36.20;;;;;;;1.37;59.61;98601.11;219860;1284;139255;-58
2022/02/15 06:02:55;;;;;;;69.50;37.50;;;;;;;1.38;59.60;98599.14;219849;1285;139474;-58
2022/02/15 06:08:07;;;;;;;69.40;36.40;;;;;;;1.37;59.51;98597.96;219836;1285;139428;-58
2022/02/15 06:13:14;;;;;;;67.20;37.60;;;;;;;1.38;59.70;98599.34;219753;1286;139953;-57
2022/02/15 06:18:18;;;;;;;73.20;37.80;;;;;;;1.36;59.86;98604.45;219895;1285;139390;-61
2022/02/15 06:23:25;;;;;;;72.10;39.80;;;;;;;1.36;59.95;98612.69;219702;1285;139534;-57
2022/02/15 06:28:34;;;;;;;70.20;37.40;;;;;;;1.38;60.04;98624.30;219964;1285;140165;-57
2022/02/15 06:33:44;;;;;;;68.40;36.60;;;;;;;1.47;60.27;98631.73;219874;1285;140471;-58
2022/02/15 06:38:48;;;;;;;65.00;35.10;;;;;;;1.56;60.18;98637.39;219701;1283;139326;-58
2022/02/15 06:43:57;;;;;;;68.90;36.60;;;;;;;1.67;60.49;98641.39;219903;1285;139236;-59
2022/02/15 06:49:14;;;;;;;73.20;37.40;;;;;;;1.79;60.59;98638.20;219826;1285;140080;-58
2022/02/15 06:54:24;;;;;;;70.00;35.70;;;;;;;1.88;60.57;98650.30;219991;1285;139328;-57
2022/02/15 06:59:29;;;;;;;66.80;38.50;;;;;;;1.95;60.57;98658.48;219956;1285;141218;-58
2022/02/15 07:04:32;;;;;;;69.20;38.90;;;;;;;2.02;60.72;98660.68;220175;1286;139786;-58
2022/02/15 07:09:36;;;;;;;74.20;39.30;;;;;;;2.08;60.62;98659.96;219742;1286;140074;-60
2022/02/15 07:14:50;;;;;;;77.10;40.50;;;;;;;2.15;60.74;98658.68;219955;1286;139386;-58
2022/02/15 07:19:57;;;;;;;73.60;38.90;;;;;;;2.23;60.74;98657.55;219943;1284;138966;-59
2022/02/15 07:25:23;;;;;;;72.50;39.90;;;;;;;2.30;60.72;98662.39;219828;1286;139215;-59
2022/02/15 07:30:39;;;;;;;66.70;37.80;;;;;;;2.39;60.81;98666.77;219630;1286;140152;-59
2022/02/15 07:35:46;;;;;;;68.20;36.80;;;;;;;2.51;61.00;98669.14;219918;1285;139142;-57
2022/02/15 07:40:49;;;;;;;64.60;37.00;;;;;;;2.64;60.96;98668.88;220042;1286;139492;-58
2022/02/15 07:45:53;;;;;;;64.30;35.50;;;;;;;2.78;61.08;98669.25;219905;1285;139903;-61
2022/02/15 07:50:56;;;;;;;61.00;34.00;;;;;;;2.95;61.39;98665.29;219663;1285;139464;-60
2022/02/15 07:55:59;;;;;;;59.60;33.10;;;;;;;3.13;61.40;98668.82;219795;1286;140551;-57
2022/02/15 08:01:04;;;;;;;58.60;33.40;;;;;;;3.32;61.37;98671.98;219526;1286;139380;-59
2022/02/15 08:06:07;;;;;;;59.90;32.80;;;;;;;3.49;61.37;98671.81;219952;1285;139304;-59
2022/02/15 08:11:12;;;;;;;56.70;33.40;;;;;;;3.70;61.35;98676.95;219864;1285;138818;-61
2022/02/15 08:16:17;;;;;;;49.20;27.50;;;;;;;3.90;61.21;98675.79;219872;1286;139345;-58
2022/02/15 08:21:20;;;;;;;52.40;26.60;;;;;;;4.14;61.21;98676.19;219746;1285;138814;-61
2022/02/15 08:26:40;;;;;;;40.90;24.30;;;;;;;4.42;61.11;98679.59;219925;1286;140169;-58
2022/02/15 08:31:44;;;;;;;44.50;24.20;;;;;;;4.63;61.02;98679.89;219771;1286;139238;-57
2022/02/15 08:36:47;;;;;;;44.20;24.60;;;;;;;4.87;60.95;98676.54;219853;1286;140942;-59
2022/02/15 08:41:50;;;;;;;42.10;24.30;;;;;;;5.13;60.37;98677.11;219803;1286;138829;-57
2022/02/15 08:46:55;;;;;;;44.90;24.80;;;;;;;5.33;60.37;98676.91;219574;1286;139169;-60
2022/02/15 08:51:58;;;;;;;48.70;26.30;;;;;;;5.54;59.76;98672.92;219875;1286;138809;-59
2022/02/15 08:57:01;;;;;;;42.00;23.00;;;;;;;5.78;59.86;98669.66;219845;1286;139449;-61
2022/02/15 09:02:05;;;;;;;42.60;21.60;;;;;;;6.00;59.61;98673.02;219814;1286;138920;-61
2022/02/15 09:07:08;;;;;;;37.10;20.90;;;;;;;6.20;59.20;98671.36;219802;1285;139201;-60
2022/02/15 09:12:11;;;;;;;32.60;18.30;;;;;;;6.39;58.96;98674.95;219822;1284;139603;-59
2022/02/15 09:17:14;;;;;;;35.20;17.90;;;;;;;6.55;58.60;98680.48;219892;1285;138886;-58
2022/02/15 09:22:17;;;;;;;29.70;15.90;;;;;;;6.70;58.17;98677.92;220000;1285;140159;-58
2022/02/15 09:27:21;;;;;;;29.50;16.20;;;;;;;6.87;57.96;98675.31;219797;1286;139427;-61
2022/02/15 09:32:24;;;;;;;28.60;14.30;;;;;;;7.07;57.80;98676.34;219565;1285;139522;-58
2022/02/15 09:37:27;;;;;;;26.20;14.00;;;;;;;7.26;57.27;98677.75;219991;1283;139859;-61
2022/02/15 09:42:31;;;;;;;25.20;13.40;;;;;;;7.45;57.12;98679.55;219906;1285;139147;-60
2022/02/15 09:47:36;;;;;;;24.20;12.50;;;;;;;7.62;56.75;98678.29;219777;1285;139564;-57
2022/02/15 09:52:45;;;;;;;25.40;13.20;;;;;;;7.79;56.38;98680.82;219984;1285;140082;-58
2022/02/15 09:57:49;;;;;;;232.50;133.10;;;;;;;7.97;56.33;98676.97;219858;1286;138768;-57
2022/02/15 10:02:53;;;;;;;32.20;18.50;;;;;;;8.24;56.08;98671.19;219518;1286;139814;-56
2022/02/15 10:07:57;;;;;;;20.50;11.90;;;;;;;8.40;55.47;98669.02;219029;1287;139945;-57
2022/02/15 10:13:01;;;;;;;21.50;11.60;;;;;;;8.54;55.16;98668.38;219160;1286;139456;-57
2022/02/15 10:18:29;;;;;;;20.50;11.30;;;;;;;8.67;54.76;98668.48;219094;1285;142130;-60
2022/02/15 10:23:34;;;;;;;21.40;11.50;;;;;;;8.82;54.69;98665.27;218985;1285;139967;-57
2022/02/15 10:28:38;;;;;;;104.90;61.80;;;;;;;9.04;54.54;98665.86;218997;1286;140732;-58
2022/02/15 10:33:45;;;;;;;18.40;12.10;;;;;;;9.30;54.36;98665.31;219181;1286;139210;-57
2022/02/15 10:38:52;;;;;;;22.20;11.70;;;;;;;9.47;53.67;98667.62;218932;1287;139305;-59
2022/02/15 10:43:57;;;;;;;20.10;9.60;;;;;;;9.66;53.41;98665.48;219098;1285;140514;-58
2022/02/15 10:49:01;;;;;;;18.70;10.00;;;;;;;9.86;53.07;98663.13;219009;1287;139194;-59
2022/02/15 10:54:06;;;;;;;16.20;10.00;;;;;;;10.07;52.83;98655.41;219170;1286;139710;-58
2022/02/15 10:59:13;;;;;;;18.10;9.70;;;;;;;10.33;52.54;98653.52;219052;1286;140296;-58
2022/02/15 11:04:17;;;;;;;22.00;11.20;;;;;;;10.56;52.44;98658.70;219302;1285;141061;-57
2022/02/15 11:09:27;;;;;;;22.70;12.10;;;;;;;10.71;51.96;98658.58;219113;1286;140767;-61
2022/02/15 11:14:30;;;;;;;18.60;11.20;;;;;;;10.86;51.70;98654.84;219196;1286;139892;-59
2022/02/15 11:19:42;;;;;;;18.10;11.00;;;;;;;11.04;51.40;98658.95;219337;1286;140342;-58
2022/02/15 11:24:47;;;;;;;21.20;10.90;;;;;;;11.17;51.25;98654.66;219130;1286;139391;-58
2022/02/15 11:29:56;;;;;;;16.80;10.40;;;;;;;11.19;50.38;98656.48;218936;1286;139366;-56
2022/02/15 11:35:09;;;;;;;20.90;9.20;;;;;;;11.15;50.38;98661.70;219286;1286;139809;-58
2022/02/15 11:40:15;;;;;;;15.40;8.50;;;;;;;11.19;50.14;98658.64;219241;1286;139738;-57
2022/02/15 11:45:27;;;;;;;16.20;8.40;;;;;;;11.20;49.64;98659.42;219172;1286;140694;-57
2022/02/15 11:50:44;;;;;;;17.70;8.40;;;;;;;11.19;49.12;98655.40;219027;1286;139985;-57
2022/02/15 11:55:48;;;;;;;14.40;8.40;;;;;;;11.17;49.05;98660.48;218820;1286;143008;-59
2022/02/15 12:00:52;;;;;;;20.10;9.70;;;;;;;11.11;49.19;98665.86;219135;1286;139837;-59
2022/02/15 12:05:58;;;;;;;20.00;9.50;;;;;;;11.14;49.12;98664.98;219004;1285;139462;-58
2022/02/15 12:11:05;;;;;;;85.30;46.00;;;;;;;11.30;48.96;98661.17;218810;1287;139366;-60
2022/02/15 12:16:08;;;;;;;;;;;;;;;11.51;48.68;98668.36;219146;1285;142275;-58
2022/02/15 12:21:11;;;;;;;16.50;10.40;;;;;;;11.68;48.21;98669.68;219247;1286;125575;-57
2022/02/15 12:26:17;;;;;;;18.10;10.70;;;;;;;11.80;48.36;98670.37;219771;1284;141079;-59
2022/02/15 12:31:24;;;;;;;18.10;10.10;;;;;;;11.95;48.27;98672.84;219802;1284;142621;-59
2022/02/15 12:36:28;;;;;;;21.40;10.20;;;;;;;12.00;47.73;98673.89;219703;1285;140133;-58
2022/02/15 12:41:38;;;;;;;18.10;10.20;;;;;;;12.00;47.46;98674.45;219782;1284;139098;-59
2022/02/15 12:46:43;;;;;;;18.80;10.80;;;;;;;11.96;47.46;98678.27;219763;1285;139082;-57
2022/02/15 12:51:47;;;;;;;20.50;11.20;;;;;;;12.02;47.49;98678.94;219638;1285;140135;-58
2022/02/15 12:56:50;;;;;;;19.90;9.50;;;;;;;12.15;47.44;98672.10;219162;1286;139418;-56
2022/02/15 13:01:59;;;;;;;19.70;9.80;;;;;;;12.28;47.39;98667.38;219309;1283;140826;-57
2022/02/15 13:07:05;;;;;;;16.20;9.50;;;;;;;12.38;46.86;98665.73;219036;1285;139627;-58
2022/02/15 13:12:08;;;;;;;16.40;8.40;;;;;;;12.40;46.36;98661.00;219135;1286;141364;-57
2022/02/15 13:17:11;;;;;;;17.60;9.20;;;;;;;12.38;46.15;98656.64;219070;1286;140145;-56
2022/02/15 13:22:19;;;;;;;18.40;9.40;;;;;;;12.33;45.99;98651.02;219056;1286;139266;-56
2022/02/15 13:27:32;;;;;;;18.30;9.80;;;;;;;12.34;46.14;98655.58;218996;1285;139430;-56
2022/02/15 13:32:36;;;;;;;17.70;9.80;;;;;;;12.43;45.97;98660.77;219338;1286;140273;-56
2022/02/15 13:37:39;;;;;;;20.50;9.40;;;;;;;12.45;45.72;98660.20;219864;1285;139657;-57
2022/02/15 13:42:42;;;;;;;17.40;9.70;;;;;;;12.54;45.65;98660.80;219892;1284;139042;-56
2022/02/15 13:47:45;;;;;;;36.70;24.60;;;;;;;12.62;45.84;98661.61;219380;1286;139597;-54
2022/02/15 13:52:48;;;;;;;24.90;14.10;;;;;;;13.21;49.45;98663.19;219855;1286;139221;-57
2022/02/15 13:57:52;;;;;;;49.90;30.30;;;;;;;14.24;49.23;98659.58;219683;1286;141988;-58
2022/02/15 14:02:55;;;;;;;40.90;22.70;;;;;;;14.92;48.27;98651.34;219644;1285;138907;-56
2022/02/15 14:07:58;;;;;;;30.10;13.40;;;;;;;15.20;46.71;98657.84;219828;1285;142226;-57
2022/02/15 14:13:02;;;;;;;25.60;11.30;;;;;;;15.34;45.72;98659.45;219211;1284;139856;-59
2022/02/15 14:18:06;;;;;;;19.90;10.60;;;;;;;15.42;45.28;98657.01;219800;1285;139325;-57
2022/02/15 14:23:09;;;;;;;16.70;9.30;;;;;;;15.67;45.09;98656.89;219921;1285;139144;-59
2022/02/15 14:28:12;;;;;;;16.60;8.90;;;;;;;15.71;44.34;98651.42;219802;1284;139242;-57
2022/02/15 14:33:19;;;;;;;21.20;9.80;;;;;;;15.58;43.47;98664.88;219804;1284;139277;-57
2022/02/15 14:38:24;;;;;;;22.00;11.00;;;;;;;15.39;43.51;98665.31;219725;1285;139557;-56
2022/02/15 14:43:28;;;;;;;24.80;11.20;;;;;;;15.35;43.39;98669.01;219813;1285;139265;-56
2022/02/15 14:48:31;;;;;;;27.70;12.40;;;;;;;15.33;43.48;98667.55;219798;1285;139833;-57
2022/02/15 14:53:34;;;;;;;23.80;12.70;;;;;;;15.43;43.34;98678.33;219704;1285;139018;-56
2022/02/15 14:58:40;;;;;;;25.30;13.00;;;;;;;15.45;43.11;98678.53;219843;1285;139362;-58
2022/02/15 15:03:43;;;;;;;28.50;14.30;;;;;;;15.39;42.96;98679.47;219802;1285;140280;-58
2022/02/15 15:08:47;;;;;;;36.60;14.90;;;;;;;15.28;42.75;98680.23;219702;1284;139446;-57
2022/02/15 15:13:52;;;;;;;37.40;20.00;;;;;;;15.09;42.50;98673.27;219805;1285;139313;-59
2022/02/15 15:18:56;;;;;;;36.50;18.90;;;;;;;14.88;42.51;98683.30;219807;1285;139987;-57
2022/02/15 15:23:59;;;;;;;33.00;19.30;;;;;;;14.70;42.64;98686.79;219735;1285;139636;-57
2022/02/15 15:29:03;;;;;;;32.60;18.60;;;;;;;14.68;43.22;98688.21;219867;1285;139305;-57
2022/02/15 15:34:06;;;;;;;31.60;16.90;;;;;;;14.70;43.26;98692.52;219650;1285;140693;-58
2022/02/15 15:39:10;;;;;;;31.70;17.70;;;;;;;14.58;42.71;98694.73;219694;1284;139815;-57
2022/02/15 15:44:13;;;;;;;68.40;36.80;;;;;;;14.19;42.67;98694.06;220127;1274;139304;-55
2022/02/15 15:49:16;;;;;;;35.80;17.70;;;;;;;13.76;42.51;98703.83;219608;1284;139702;-56
2022/02/15 15:54:19;;;;;;;35.20;16.90;;;;;;;13.32;42.67;98709.97;219330;1286;142131;-55
2022/02/15 15:59:22;;;;;;;34.00;15.50;;;;;;;12.94;42.93;98711.98;219264;1286;141094;-57
2022/02/15 16:04:25;;;;;;;44.90;17.30;;;;;;;12.54;43.37;98713.81;219312;1285;139338;-56
2022/02/15 16:09:29;;;;;;;38.10;16.00;;;;;;;12.21;44.18;98719.15;219355;1285;139537;-56
2022/02/15 16:14:33;;;;;;;41.80;16.50;;;;;;;11.92;44.29;98721.25;219248;1281;139558;-55
2022/02/15 16:19:38;;;;;;;27.30;13.80;;;;;;;11.71;44.57;98728.10;219315;1283;140037;-55
2022/02/15 16:24:41;;;;;;;24.00;12.20;;;;;;;11.51;44.71;98720.80;219307;1284;139920;-55
2022/02/15 16:29:45;;;;;;;32.40;12.20;;;;;;;11.31;44.81;98718.64;219323;1284;140677;-55
2022/02/15 16:34:50;;;;;;;27.60;13.90;;;;;;;11.10;45.35;98726.50;219316;1285;139856;-55
2022/02/15 16:39:53;;;;;;;33.60;13.70;;;;;;;10.97;45.85;98730.44;219192;1284;139697;-55
2022/02/15 16:44:56;;;;;;;42.50;15.20;;;;;;;10.83;45.78;98736.88;218634;1286;560558;-55
2022/02/15 16:50:00;;;;;;;40.10;14.70;;;;;;;10.69;46.27;98740.34;218656;1287;139667;-53
2022/02/15 16:55:05;;;;;;;48.00;14.50;;;;;;;10.56;46.34;98749.50;218913;1287;139911;-55
2022/02/15 17:00:09;;;;;;;47.40;15.20;;;;;;;10.44;46.55;98749.64;219026;1286;139822;-55
2022/02/15 17:05:12;;;;;;;41.00;14.80;;;;;;;10.27;47.02;98749.63;219641;1286;139814;-55
2022/02/15 17:10:15;;;;;;;48.80;15.80;;;;;;;10.20;47.26;98751.83;219097;1284;139460;-57
2022/02/15 17:15:19;;;;;;;48.80;16.50;;;;;;;10.07;47.42;98761.91;218663;1287;140274;-57
2022/02/15 17:20:22;;;;;;;48.40;15.90;;;;;;;9.91;47.64;98767.56;218694;1287;139785;-58
2022/02/15 17:25:25;;;;;;;45.20;15.00;;;;;;;9.75;47.96;98781.83;218911;1286;140073;-57
2022/02/15 17:30:29;;;;;;;44.20;14.60;;;;;;;9.62;48.28;98786.59;218947;1286;139701;-58
2022/02/15 17:35:33;;;;;;;45.20;15.10;;;;;;;9.48;48.21;98796.46;219721;1284;139760;-58
2022/02/15 17:40:36;;;;;;;51.20;14.90;;;;;;;9.37;48.44;98800.15;219520;1285;139696;-57
2022/02/15 17:45:39;;;;;;;43.10;14.70;;;;;;;9.27;48.89;98799.15;219045;1286;140706;-58
2022/02/15 17:50:42;;;;;;;55.70;15.20;;;;;;;9.18;49.13;98799.35;218984;1286;139651;-57
2022/02/15 17:55:46;;;;;;;483.20;330.40;;;;;;;9.11;49.44;98802.79;218942;1286;140034;-56
2022/02/15 18:01:09;;;;;;;85.80;36.40;;;;;;;9.17;50.00;98806.69;218938;1286;139801;-58
2022/02/15 18:06:12;;;;;;;56.00;19.20;;;;;;;9.31;49.92;98811.69;218825;1286;140359;-57
2022/02/15 18:11:17;;;;;;;46.60;16.40;;;;;;;9.23;49.73;98817.25;219047;1287;139156;-56
2022/02/15 18:16:20;;;;;;;55.80;19.20;;;;;;;9.16;49.86;98816.61;218933;1286;139215;-58
2022/02/15 18:21:29;;;;;;;62.70;17.50;;;;;;;9.13;50.04;98818.25;218947;1287;139335;-59
2022/02/15 18:26:36;;;;;;;52.30;17.90;;;;;;;9.02;49.97;98819.96;218917;1287;140209;-58
2022/02/15 18:32:02;;;;;;;44.80;17.20;;;;;;;8.81;50.20;98824.34;218585;1287;138965;-57
2022/02/15 18:37:05;;;;;;;;;;;;;;;8.60;50.33;98827.67;219054;1286;138912;-58
2022/02/15 18:42:10;;;;;;;54.00;16.80;;;;;;;8.42;50.74;98826.95;218991;1287;126391;-57
2022/02/15 18:47:14;;;;;;;55.70;19.60;;;;;;;8.25;50.95;98830.71;219011;1287;139339;-58
2022/02/15 18:52:18;;;;;;;49.20;20.70;;;;;;;8.11;51.12;98830.59;218872;1285;139845;-58
2022/02/15 18:57:26;;;;;;;47.10;18.80;;;;;;;7.99;51.54;98826.16;218909;1287;140957;-57
2022/02/15 19:02:30;;;;;;;71.90;40.50;;;;;;;7.90;51.84;98823.81;218944;1287;139006;-58
2022/02/15 19:07:34;;;;;;;49.50;20.90;;;;;;;8.07;52.41;98819.71;218967;1286;139983;-58
2022/02/15 19:12:37;;;;;;;50.30;21.70;;;;;;;8.02;52.00;98825.48;218948;1286;138808;-57
2022/02/15 19:17:42;;;;;;;70.80;31.00;;;;;;;7.83;52.13;98832.64;218953;1287;139104;-57
2022/02/15 19:22:49;;;;;;;64.00;25.70;;;;;;;7.69;52.26;98842.45;218804;1287;139776;-59
2022/02/15 19:27:52;;;;;;;70.70;27.60;;;;;;;7.54;52.56;98833.52;219001;1287;139667;-57
2022/02/15 19:33:00;;;;;;;72.50;32.90;;;;;;;7.41;52.67;98832.11;219010;1287;139465;-58
2022/02/15 19:38:05;;;;;;;55.70;21.60;;;;;;;7.31;53.13;98833.30;219029;1286;139524;-58
2022/02/15 19:43:10;;;;;;;72.90;30.40;;;;;;;7.25;53.33;98838.75;218762;1287;139356;-55
2022/02/15 19:48:14;;;;;;;73.00;30.90;;;;;;;7.18;53.52;98845.14;218831;1287;139306;-58
2022/02/15 19:53:17;;;;;;;406.60;269.30;;;;;;;7.13;54.02;98848.35;219133;1285;140204;-59
2022/02/15 19:58:20;;;;;;;72.20;35.20;;;;;;;7.41;55.10;98844.77;219022;1286;141351;-57
2022/02/15 20:03:25;;;;;;;78.80;32.50;;;;;;;7.44;54.21;98850.98;219267;1285;140568;-57
2022/02/15 20:08:28;;;;;;;76.20;36.50;;;;;;;7.28;53.96;98856.22;219041;1286;139254;-59
2022/02/15 20:13:31;;;;;;;101.00;43.00;;;;;;;7.12;54.14;98863.23;219105;1286;139877;-58
2022/02/15 20:18:36;;;;;;;83.00;41.90;;;;;;;6.96;54.26;98871.29;219033;1286;139108;-59
2022/02/15 20:23:39;;;;;;;93.70;40.20;;;;;;;6.84;54.25;98877.84;219147;1287;139049;-58
2022/02/15 20:28:42;;;;;;;78.70;38.00;;;;;;;6.74;54.38;98876.42;219175;1287;139661;-58
2022/02/15 20:33:45;;;;;;;79.40;35.70;;;;;;;6.62;54.64;98873.64;219131;1284;140281;-57
2022/02/15 20:38:53;;;;;;;78.50;37.50;;;;;;;6.52;54.65;98870.44;219134;1286;139067;-57
2022/02/15 20:43:56;;;;;;;99.50;46.30;;;;;;;6.41;55.17;98870.23;219068;1287;139641;-60
2022/02/15 20:49:00;;;;;;;107.50;52.70;;;;;;;6.28;55.25;98858.53;219099;1287;139031;-59
2022/02/15 20:54:04;;;;;;;110.90;53.70;;;;;;;6.16;55.64;98853.30;219186;1285;139640;-59
2022/02/15 20:59:07;;;;;;;121.90;56.00;;;;;;;6.07;55.52;98853.34;219109;1287;139008;-60
2022/02/15 21:04:10;;;;;;;123.10;56.20;;;;;;;6.00;55.87;98861.61;219105;1286;141412;-59
2022/02/15 21:09:14;;;;;;;125.20;59.30;;;;;;;5.91;55.90;98869.02;219031;1286;139185;-58
2022/02/15 21:14:17;;;;;;;133.10;62.10;;;;;;;5.82;56.05;98881.57;219024;1287;139806;-60
2022/02/15 21:19:24;;;;;;;142.20;62.60;;;;;;;5.75;55.94;98880.70;219002;1287;139130;-59
2022/02/15 21:24:29;;;;;;;120.60;60.20;;;;;;;5.65;55.99;98874.98;219051;1287;139290;-59
2022/02/15 21:29:33;;;;;;;124.00;60.30;;;;;;;5.52;56.40;98876.46;219013;1287;139856;-60
2022/02/15 21:34:37;;;;;;;138.60;64.00;;;;;;;5.43;56.21;98870.31;219159;1287;139168;-58
2022/02/15 21:39:40;;;;;;;142.70;66.20;;;;;;;5.36;56.56;98875.19;219062;1287;140410;-58
2022/02/15 21:44:43;;;;;;;132.10;64.50;;;;;;;5.32;56.61;98877.32;219110;1287;139259;-58
2022/02/15 21:49:47;;;;;;;135.10;62.20;;;;;;;5.26;57.01;98876.16;218845;1286;139050;-60
2022/02/15 21:54:50;;;;;;;133.60;61.90;;;;;;;5.21;57.27;98874.44;219050;1287;139458;-60
2022/02/15 21:59:53;;;;;;;128.70;60.50;;;;;;;5.18;57.22;98872.60;219029;1287;139084;-61
2022/02/15 22:04:56;;;;;;;125.30;59.40;;;;;;;5.14;57.22;98870.66;219379;1286;139623;-59
2022/02/15 22:10:01;;;;;;;130.00;63.70;;;;;;;5.09;57.36;98866.00;219104;1286;139018;-59
2022/02/15 22:15:09;;;;;;;131.60;61.60;;;;;;;5.04;57.43;98859.88;219202;1286;140139;-58
2022/02/15 22:20:14;;;;;;;132.80;59.50;;;;;;;5.02;57.73;98854.48;218974;1287;140253;-59
2022/02/15 22:25:17;;;;;;;123.90;60.40;;;;;;;5.03;58.01;98856.04;219150;1286;139707;-59
2022/02/15 22:30:20;;;;;;;124.00;61.40;;;;;;;5.00;57.92;98863.38;219017;1287;139606;-58
2022/02/15 22:35:23;;;;;;;132.90;62.30;;;;;;;4.96;57.90;98867.56;218992;1287;139750;-59
2022/02/15 22:40:31;;;;;;;124.40;58.90;;;;;;;4.97;58.54;98880.38;219185;1287;139731;-59
2022/02/15 22:45:36;;;;;;;102.50;55.80;;;;;;;5.01;58.30;98873.53;219123;1287;139414;-58
2022/02/15 22:50:39;;;;;;;122.20;57.70;;;;;;;5.08;58.66;98868.31;219158;1285;139508;-58
2022/02/15 22:55:42;;;;;;;110.70;54.10;;;;;;;5.08;58.61;98871.48;218922;1287;139368;-58
2022/02/15 23:00:45;;;;;;;113.40;54.80;;;;;;;5.14;58.67;98867.35;219061;1287;139616;-58